createdAt,value
2022-09-10T00:00:39.777Z,102788
2022-09-10T00:01:38.904Z,102790
2022-09-10T00:02:39.464Z,102788
2022-09-10T00:03:37.731Z,102788
2022-09-10T00:04:37.693Z,102784
2022-09-10T00:06:38.938Z,102785
2022-09-10T00:07:37.889Z,102783
2022-09-10T00:08:39.532Z,102782
2022-09-10T00:09:38.506Z,102781
2022-09-10T00:10:42.469Z,102781
2022-09-10T00:11:40.856Z,102778
2022-09-10T00:12:37.761Z,102779
2022-09-10T00:13:39.415Z,102779
2022-09-10T00:14:37.850Z,102780
2022-09-10T00:15:41.851Z,102782
2022-09-10T00:16:37.806Z,102779
2022-09-10T00:17:39.064Z,102779
2022-09-10T00:18:39.423Z,102781
2022-09-10T00:19:38.704Z,102772
2022-09-10T00:20:44.459Z,102768
2022-09-10T00:21:38.045Z,102766
2022-09-10T00:22:37.806Z,102765
2022-09-10T00:23:37.773Z,102759
2022-09-10T00:24:38.862Z,102760
2022-09-10T00:25:39.163Z,102758
2022-09-10T00:26:39.867Z,102759
2022-09-10T00:27:37.718Z,102760
2022-09-10T00:28:37.913Z,102765
2022-09-10T00:29:38.336Z,102762
2022-09-10T00:31:38.387Z,102758
2022-09-10T00:32:38.601Z,102759
2022-09-10T00:33:38.178Z,102755
2022-09-10T00:34:37.672Z,102754
2022-09-10T00:35:40.490Z,102752
2022-09-10T00:36:40.944Z,102753
2022-09-10T00:37:37.876Z,102752
2022-09-10T00:38:37.895Z,102754
2022-09-10T00:39:37.699Z,102752
2022-09-10T00:40:38.318Z,102755
2022-09-10T00:41:40.608Z,102753
2022-09-10T00:42:37.651Z,102749
2022-09-10T00:43:49.939Z,102747
2022-09-10T00:44:46.372Z,102745
2022-09-10T00:45:37.833Z,102743
2022-09-10T00:46:43.646Z,102740
2022-09-10T00:47:39.718Z,102738
2022-09-10T00:48:38.253Z,102737
2022-09-10T00:49:42.337Z,102734
2022-09-10T00:50:42.006Z,102729
2022-09-10T00:51:38.177Z,102730
2022-09-10T00:52:39.916Z,102724
2022-09-10T00:53:37.728Z,102723
2022-09-10T00:54:40.645Z,102720
2022-09-10T00:55:41.532Z,102719
2022-09-10T00:56:38.944Z,102722
2022-09-10T00:57:38.736Z,102718
2022-09-10T00:58:38.162Z,102719
2022-09-10T00:59:37.746Z,102719
2022-09-10T01:00:38.469Z,102718
2022-09-10T01:01:39.294Z,102719
2022-09-10T01:02:37.810Z,102716
2022-09-10T01:03:38.005Z,102715
2022-09-10T01:04:38.322Z,102710
2022-09-10T01:05:38.760Z,102711
2022-09-10T01:06:39.771Z,102710
2022-09-10T01:07:38.020Z,102707
2022-09-10T01:08:37.915Z,102706
2022-09-10T01:09:38.832Z,102706
2022-09-10T01:10:54.275Z,102705
2022-09-10T01:11:52.952Z,102705
2022-09-10T01:12:55.825Z,102702
2022-09-10T01:13:55.276Z,102702
2022-09-10T01:14:55.745Z,102702
2022-09-10T01:15:53.189Z,102696
2022-09-10T01:16:51.662Z,102696
2022-09-10T01:18:45.195Z,102693
2022-09-10T01:19:46.839Z,102690
2022-09-10T01:20:44.746Z,102687
2022-09-10T01:21:52.076Z,102684
2022-09-10T01:22:49.373Z,102684
2022-09-10T01:23:57.625Z,102682
2022-09-10T01:24:51.343Z,102680
2022-09-10T01:25:54.267Z,102679
2022-09-10T01:26:55.202Z,102683
2022-09-10T01:27:50.309Z,102678
2022-09-10T01:28:45.019Z,102678
2022-09-10T01:29:49.496Z,102673
2022-09-10T01:30:43.651Z,102674
2022-09-10T01:31:41.286Z,102673
2022-09-10T01:32:41.556Z,102668
2022-09-10T01:33:46.129Z,102670
2022-09-10T01:34:46.422Z,102669
2022-09-10T01:35:43.318Z,102668
2022-09-10T01:36:41.950Z,102668
2022-09-10T01:37:40.842Z,102667
2022-09-10T01:38:42.111Z,102662
2022-09-10T01:39:39.778Z,102662
2022-09-10T01:40:38.593Z,102656
2022-09-10T01:41:38.131Z,102657
2022-09-10T01:42:40.065Z,102655
2022-09-10T01:43:37.984Z,102657
2022-09-10T01:44:42.511Z,102655
2022-09-10T01:45:44.867Z,102653
2022-09-10T01:46:50.164Z,102655
2022-09-10T01:47:51.397Z,102650
2022-09-10T01:48:56.103Z,102650
2022-09-10T01:49:47.076Z,102651
2022-09-10T01:50:53.105Z,102652
2022-09-10T01:51:53.658Z,102646
2022-09-10T01:52:53.531Z,102646
2022-09-10T01:53:51.500Z,102637
2022-09-10T01:54:52.147Z,102639
2022-09-10T01:55:51.599Z,102637
2022-09-10T01:56:54.746Z,102637
2022-09-10T01:57:53.204Z,102640
2022-09-10T01:58:40.832Z,102641
2022-09-10T01:59:47.176Z,102638
2022-09-10T02:00:42.252Z,102637
2022-09-10T02:01:45.800Z,102640
2022-09-10T02:03:39.824Z,102635
2022-09-10T02:04:38.739Z,102631
2022-09-10T02:06:40.957Z,102629
2022-09-10T02:07:39.659Z,102627
2022-09-10T02:08:40.662Z,102629
2022-09-10T02:09:37.918Z,102627
2022-09-10T02:10:55.777Z,102627
2022-09-10T02:11:48.316Z,102626
2022-09-10T02:12:40.168Z,102625
2022-09-10T02:13:38.412Z,102628
2022-09-10T02:14:37.625Z,102628
2022-09-10T02:15:38.177Z,102627
2022-09-10T02:16:41.447Z,102628
2022-09-10T02:17:39.950Z,102625
2022-09-10T02:18:40.129Z,102626
2022-09-10T02:19:38.542Z,102623
2022-09-10T02:20:39.027Z,102623
2022-09-10T02:21:38.685Z,102619
2022-09-10T02:22:39.413Z,102624
2022-09-10T02:23:44.460Z,102617
2022-09-10T02:24:37.650Z,102620
2022-09-10T02:25:37.908Z,102620
2022-09-10T02:26:39.884Z,102611
2022-09-10T02:27:38.497Z,102611
2022-09-10T02:29:38.776Z,102608
2022-09-10T02:30:38.955Z,102603
2022-09-10T02:32:37.614Z,102602
2022-09-10T02:33:38.454Z,102607
2022-09-10T02:34:41.869Z,102612
2022-09-10T02:35:37.566Z,102612
2022-09-10T02:36:41.753Z,102612
2022-09-10T02:38:38.665Z,102611
2022-09-10T02:39:37.670Z,102609
2022-09-10T02:40:38.021Z,102614
2022-09-10T02:41:40.999Z,102613
2022-09-10T02:42:38.538Z,102612
2022-09-10T02:43:38.438Z,102608
2022-09-10T02:44:37.777Z,102611
2022-09-10T02:45:40.260Z,102606
2022-09-10T02:46:38.407Z,102611
2022-09-10T02:47:37.603Z,102611
2022-09-10T02:49:37.626Z,102602
2022-09-10T02:50:37.912Z,102605
2022-09-10T02:51:38.322Z,102607
2022-09-10T02:52:37.823Z,102604
2022-09-10T02:53:38.032Z,102604
2022-09-10T02:54:37.576Z,102601
2022-09-10T02:55:37.587Z,102604
2022-09-10T02:57:37.645Z,102604
2022-09-10T02:59:37.767Z,102601
2022-09-10T03:01:38.823Z,102599
2022-09-10T03:03:38.315Z,102600
2022-09-10T03:04:37.636Z,102597
2022-09-10T03:05:38.789Z,102602
2022-09-10T03:06:38.337Z,102596
2022-09-10T03:07:37.575Z,102593
2022-09-10T03:08:38.005Z,102592
2022-09-10T03:09:37.546Z,102591
2022-09-10T03:10:38.639Z,102592
2022-09-10T03:11:40.833Z,102589
2022-09-10T03:12:38.268Z,102587
2022-09-10T03:13:37.871Z,102585
2022-09-10T03:14:37.591Z,102588
2022-09-10T03:15:38.405Z,102589
2022-09-10T03:17:37.520Z,102585
2022-09-10T03:18:37.772Z,102583
2022-09-10T03:19:37.839Z,102582
2022-09-10T03:20:37.592Z,102583
2022-09-10T03:21:37.729Z,102585
2022-09-10T03:22:38.354Z,102585
2022-09-10T03:23:38.269Z,102584
2022-09-10T03:24:37.587Z,102585
2022-09-10T03:25:37.560Z,102582
2022-09-10T03:26:37.737Z,102581
2022-09-10T03:27:38.488Z,102580
2022-09-10T03:28:38.814Z,102580
2022-09-10T03:30:38.405Z,102579
2022-09-10T03:31:37.926Z,102578
2022-09-10T03:32:38.345Z,102577
2022-09-10T03:33:38.500Z,102576
2022-09-10T03:34:37.531Z,102577
2022-09-10T03:35:37.524Z,102579
2022-09-10T03:36:37.566Z,102581
2022-09-10T03:39:37.680Z,102579
2022-09-10T03:40:37.677Z,102582
2022-09-10T03:41:37.634Z,102583
2022-09-10T03:42:38.877Z,102581
2022-09-10T03:43:37.656Z,102577
2022-09-10T03:44:37.913Z,102575
2022-09-10T03:45:37.603Z,102575
2022-09-10T03:46:38.415Z,102575
2022-09-10T03:47:37.822Z,102573
2022-09-10T03:48:39.847Z,102573
2022-09-10T03:49:37.920Z,102573
2022-09-10T03:50:39.418Z,102569
2022-09-10T03:51:37.518Z,102567
2022-09-10T03:52:37.590Z,102566
2022-09-10T03:53:38.779Z,102564
2022-09-10T03:54:37.569Z,102561
2022-09-10T03:55:37.833Z,102557
2022-09-10T03:56:37.623Z,102556
2022-09-10T03:57:39.121Z,102555
2022-09-10T03:58:37.926Z,102556
2022-09-10T03:59:39.589Z,102552
2022-09-10T04:00:37.594Z,102553
2022-09-10T04:01:37.518Z,102552
2022-09-10T04:02:37.691Z,102551
2022-09-10T04:03:37.599Z,102551
2022-09-10T04:04:39.714Z,102547
2022-09-10T04:05:40.826Z,102550
2022-09-10T04:06:41.852Z,102548
2022-09-10T04:07:38.030Z,102543
2022-09-10T04:08:39.943Z,102546
2022-09-10T04:08:42.585Z,102546
2022-09-10T04:09:37.638Z,102544
2022-09-10T04:10:37.671Z,102544
2022-09-10T04:11:37.603Z,102543
2022-09-10T04:12:38.071Z,102542
2022-09-10T04:13:37.555Z,102543
2022-09-10T04:15:38.633Z,102539
2022-09-10T04:17:37.511Z,102540
2022-09-10T04:20:38.349Z,102532
2022-09-10T04:21:37.569Z,102539
2022-09-10T04:22:37.649Z,102534
2022-09-10T04:23:38.071Z,102538
2022-09-10T04:24:38.648Z,102532
2022-09-10T04:25:32.235Z,102532
2022-09-10T04:25:34.828Z,102532
2022-09-10T04:25:36.440Z,102532
2022-09-10T04:25:57.313Z,102532
2022-09-10T04:25:59.849Z,102532
2022-09-10T04:26:37.518Z,102531
2022-09-10T04:28:38.586Z,102531
2022-09-10T04:29:48.272Z,102530
2022-09-10T04:30:38.367Z,102527
2022-09-10T04:32:41.811Z,102531
2022-09-10T04:33:37.819Z,102527
2022-09-10T04:34:07.910Z,102527
2022-09-10T04:34:10.681Z,102527
2022-09-10T04:34:37.473Z,102531
2022-09-10T04:35:33.805Z,102531
2022-09-10T04:35:35.150Z,102532
2022-09-10T04:35:36.514Z,102532
2022-09-10T04:36:38.466Z,102533
2022-09-10T04:37:43.931Z,102534
2022-09-10T04:38:41.896Z,102533
2022-09-10T04:39:37.903Z,102531
2022-09-10T04:40:38.517Z,102530
2022-09-10T04:41:37.567Z,102527
2022-09-10T04:43:38.729Z,102525
2022-09-10T04:44:37.570Z,102527
2022-09-10T04:45:39.547Z,102526
2022-09-10T04:46:37.603Z,102523
2022-09-10T04:47:38.087Z,102525
2022-09-10T04:48:37.530Z,102523
2022-09-10T04:49:37.459Z,102516
2022-09-10T04:50:54.020Z,102516
2022-09-10T04:51:37.499Z,102513
2022-09-10T04:53:37.497Z,102513
2022-09-10T04:54:38.242Z,102510
2022-09-10T04:55:40.065Z,102507
2022-09-10T04:56:37.536Z,102507
2022-09-10T04:56:51.964Z,102507
2022-09-10T04:56:53.281Z,102507
2022-09-10T04:57:42.408Z,102506
2022-09-10T04:58:39.051Z,102508
2022-09-10T05:00:00.255Z,102503
2022-09-10T05:00:39.470Z,102501
2022-09-10T05:01:37.648Z,102499
2022-09-10T05:02:37.829Z,102499
2022-09-10T05:03:37.521Z,102496
2022-09-10T05:04:43.516Z,102495
2022-09-10T05:04:45.136Z,102495
2022-09-10T05:05:43.016Z,102496
2022-09-10T05:06:37.562Z,102495
2022-09-10T05:07:39.010Z,102495
2022-09-10T05:09:37.483Z,102493
2022-09-10T05:11:37.509Z,102492
2022-09-10T05:12:39.141Z,102490
2022-09-10T05:13:37.590Z,102490
2022-09-10T05:14:38.662Z,102489
2022-09-10T05:15:40.035Z,102488
2022-09-10T05:16:38.874Z,102487
2022-09-10T05:17:37.537Z,102488
2022-09-10T05:18:37.571Z,102490
2022-09-10T05:19:37.451Z,102487
2022-09-10T05:22:40.658Z,102485
2022-09-10T05:23:37.492Z,102487
2022-09-10T05:24:37.748Z,102487
2022-09-10T05:25:37.844Z,102485
2022-09-10T05:26:37.507Z,102486
2022-09-10T05:27:37.609Z,102483
2022-09-10T05:28:37.818Z,102485
2022-09-10T05:29:37.496Z,102488
2022-09-10T05:30:37.494Z,102488
2022-09-10T05:31:37.557Z,102486
2022-09-10T05:32:40.238Z,102486
2022-09-10T05:33:40.516Z,102484
2022-09-10T05:34:39.621Z,102483
2022-09-10T05:35:37.534Z,102486
2022-09-10T05:36:37.528Z,102485
2022-09-10T05:37:37.531Z,102485
2022-09-10T05:38:40.002Z,102482
2022-09-10T05:39:37.527Z,102483
2022-09-10T05:40:37.627Z,102481
2022-09-10T05:41:37.931Z,102483
2022-09-10T05:42:37.794Z,102481
2022-09-10T05:43:37.639Z,102478
2022-09-10T05:44:37.450Z,102476
2022-09-10T05:45:37.574Z,102479
2022-09-10T05:46:38.175Z,102480
2022-09-10T05:47:38.119Z,102479
2022-09-10T05:48:41.379Z,102474
2022-09-10T05:49:37.506Z,102477
2022-09-10T05:50:38.635Z,102480
2022-09-10T05:51:37.482Z,102481
2022-09-10T05:52:37.985Z,102477
2022-09-10T05:53:38.382Z,102477
2022-09-10T05:54:37.626Z,102474
2022-09-10T05:55:37.502Z,102473
2022-09-10T05:56:37.440Z,102474
2022-09-10T05:57:37.612Z,102470
2022-09-10T05:58:37.620Z,102472
2022-09-10T05:59:37.497Z,102479
2022-09-10T06:00:37.664Z,102478
2022-09-10T06:01:38.168Z,102475
2022-09-10T06:02:38.128Z,102484
2022-09-10T06:03:38.318Z,102478
2022-09-10T06:04:37.424Z,102481
2022-09-10T06:05:37.492Z,102479
2022-09-10T06:06:37.471Z,102481
2022-09-10T06:07:37.613Z,102482
2022-09-10T06:08:37.619Z,102483
2022-09-10T06:09:37.697Z,102480
2022-09-10T06:10:37.489Z,102480
2022-09-10T06:11:37.472Z,102480
2022-09-10T06:12:38.324Z,102482
2022-09-10T06:13:42.369Z,102486
2022-09-10T06:14:37.576Z,102483
2022-09-10T06:15:39.093Z,102483
2022-09-10T06:16:37.480Z,102488
2022-09-10T06:17:38.620Z,102488
2022-09-10T06:18:37.626Z,102485
2022-09-10T06:19:37.463Z,102485
2022-09-10T06:20:37.773Z,102485
2022-09-10T06:21:37.421Z,102485
2022-09-10T06:22:37.429Z,102487
2022-09-10T06:23:37.494Z,102485
2022-09-10T06:24:37.893Z,102485
2022-09-10T06:25:37.410Z,102485
2022-09-10T06:26:37.445Z,102482
2022-09-10T06:27:37.786Z,102483
2022-09-10T06:28:39.016Z,102484
2022-09-10T06:29:37.421Z,102485
2022-09-10T06:30:37.525Z,102484
2022-09-10T06:31:37.452Z,102487
2022-09-10T06:32:39.318Z,102485
2022-09-10T06:33:37.458Z,102487
2022-09-10T06:34:37.435Z,102486
2022-09-10T06:35:37.424Z,102485
2022-09-10T06:36:37.504Z,102485
2022-09-10T06:37:37.431Z,102486
2022-09-10T06:38:37.521Z,102484
2022-09-10T06:39:37.491Z,102479
2022-09-10T06:40:38.245Z,102481
2022-09-10T06:41:37.667Z,102482
2022-09-10T06:42:38.202Z,102480
2022-09-10T06:43:38.776Z,102483
2022-09-10T06:44:37.411Z,102484
2022-09-10T06:45:41.044Z,102489
2022-09-10T06:48:32.723Z,102489
2022-09-10T06:48:45.643Z,102488
2022-09-10T06:49:37.453Z,102487
2022-09-10T06:50:37.778Z,102487
2022-09-10T06:51:38.586Z,102488
2022-09-10T06:52:37.863Z,102489
2022-09-10T06:53:38.567Z,102488
2022-09-10T06:54:37.467Z,102491
2022-09-10T06:55:37.387Z,102490
2022-09-10T06:56:37.470Z,102489
2022-09-10T06:57:37.431Z,102490
2022-09-10T06:58:37.685Z,102488
2022-09-10T06:59:37.490Z,102487
2022-09-10T07:00:39.426Z,102484
2022-09-10T07:01:38.388Z,102486
2022-09-10T07:02:37.401Z,102484
2022-09-10T07:03:38.348Z,102482
2022-09-10T07:04:37.414Z,102482
2022-09-10T07:05:37.423Z,102486
2022-09-10T07:06:39.078Z,102483
2022-09-10T07:07:37.432Z,102482
2022-09-10T07:08:39.938Z,102483
2022-09-10T07:09:37.410Z,102484
2022-09-10T07:10:37.556Z,102487
2022-09-10T07:11:41.379Z,102487
2022-09-10T07:12:37.482Z,102488
2022-09-10T07:13:38.000Z,102490
2022-09-10T07:14:37.411Z,102491
2022-09-10T07:15:37.572Z,102489
2022-09-10T07:16:41.801Z,102487
2022-09-10T07:17:37.404Z,102489
2022-09-10T07:18:37.731Z,102487
2022-09-10T07:19:38.585Z,102484
2022-09-10T07:20:37.806Z,102488
2022-09-10T07:21:38.080Z,102485
2022-09-10T07:23:39.273Z,102486
2022-09-10T07:24:37.594Z,102487
2022-09-10T07:26:37.476Z,102484
2022-09-10T07:28:38.688Z,102484
2022-09-10T07:30:37.413Z,102480
2022-09-10T07:31:38.474Z,102483
2022-09-10T07:32:37.383Z,102483
2022-09-10T07:33:37.380Z,102481
2022-09-10T07:34:37.863Z,102480
2022-09-10T07:35:38.052Z,102481
2022-09-10T07:36:37.455Z,102479
2022-09-10T07:37:39.398Z,102476
2022-09-10T07:38:38.346Z,102477
2022-09-10T07:39:38.213Z,102477
2022-09-10T07:40:37.363Z,102476
2022-09-10T07:41:37.721Z,102470
2022-09-10T07:42:38.255Z,102474
2022-09-10T07:43:39.264Z,102475
2022-09-10T07:44:37.356Z,102476
2022-09-10T07:45:37.523Z,102476
2022-09-10T07:46:38.191Z,102477
2022-09-10T07:47:37.376Z,102480
2022-09-10T07:49:37.439Z,102480
2022-09-10T07:50:37.360Z,102475
2022-09-10T07:51:37.383Z,102484
2022-09-10T07:52:37.396Z,102478
2022-09-10T07:53:37.374Z,102477
2022-09-10T07:54:37.430Z,102479
2022-09-10T07:55:37.627Z,102479
2022-09-10T07:56:38.007Z,102476
2022-09-10T07:57:39.926Z,102474
2022-09-10T07:58:38.553Z,102472
2022-09-10T07:59:37.362Z,102474
2022-09-10T08:00:37.461Z,102471
2022-09-10T08:02:37.431Z,102471
2022-09-10T08:03:37.390Z,102469
2022-09-10T08:04:37.682Z,102471
2022-09-10T08:05:39.678Z,102472
2022-09-10T08:06:37.373Z,102473
2022-09-10T08:07:38.092Z,102475
2022-09-10T08:08:40.058Z,102472
2022-09-10T08:09:37.642Z,102475
2022-09-10T08:10:37.349Z,102474
2022-09-10T08:11:37.440Z,102473
2022-09-10T08:12:37.986Z,102473
2022-09-10T08:13:38.748Z,102472
2022-09-10T08:15:41.702Z,102468
2022-09-10T08:16:41.250Z,102465
2022-09-10T08:18:37.641Z,102465
2022-09-10T08:19:37.498Z,102461
2022-09-10T08:20:38.851Z,102461
2022-09-10T08:21:37.430Z,102468
2022-09-10T08:22:37.527Z,102467
2022-09-10T08:23:39.806Z,102459
2022-09-10T08:24:37.377Z,102464
2022-09-10T08:25:38.261Z,102464
2022-09-10T08:26:37.344Z,102459
2022-09-10T08:27:37.446Z,102462
2022-09-10T08:28:38.262Z,102461
2022-09-10T08:29:37.332Z,102458
2022-09-10T08:30:37.454Z,102456
2022-09-10T08:31:37.407Z,102457
2022-09-10T08:32:37.315Z,102454
2022-09-10T08:34:37.321Z,102453
2022-09-10T08:35:38.000Z,102451
2022-09-10T08:36:37.452Z,102454
2022-09-10T08:37:38.222Z,102453
2022-09-10T08:38:41.459Z,102455
2022-09-10T08:39:37.399Z,102455
2022-09-10T08:40:43.269Z,102453
2022-09-10T08:41:44.054Z,102454
2022-09-10T08:42:46.337Z,102456
2022-09-10T08:43:49.261Z,102457
2022-09-10T08:44:50.955Z,102457
2022-09-10T08:45:58.711Z,102457
2022-09-10T08:46:42.727Z,102456
2022-09-10T08:47:46.936Z,102452
2022-09-10T08:48:41.035Z,102454
2022-09-10T08:49:40.006Z,102455
2022-09-10T08:51:47.335Z,102460
2022-09-10T08:52:42.434Z,102457
2022-09-10T08:55:45.043Z,102454
2022-09-10T08:56:37.388Z,102452
2022-09-10T08:57:45.257Z,102453
2022-09-10T08:59:44.861Z,102451
2022-09-10T09:02:56.740Z,102450
2022-09-10T09:04:41.628Z,102449
2022-09-10T09:06:44.973Z,102450
2022-09-10T09:07:39.512Z,102446
2022-09-10T09:08:48.632Z,102451
2022-09-10T09:09:37.319Z,102452
2022-09-10T09:10:45.976Z,102455
2022-09-10T09:11:51.699Z,102449
2022-09-10T09:13:51.350Z,102448
2022-09-10T09:15:41.749Z,102449
2022-09-10T09:16:53.500Z,102446
2022-09-10T09:18:49.007Z,102444
2022-09-10T09:19:42.531Z,102445
2022-09-10T09:20:50.801Z,102444
2022-09-10T09:21:52.819Z,102444
2022-09-10T09:22:42.010Z,102444
2022-09-10T09:24:12.317Z,102447
2022-09-10T09:24:53.899Z,102443
2022-09-10T09:25:49.903Z,102445
2022-09-10T09:26:38.204Z,102442
2022-09-10T09:27:42.452Z,102443
2022-09-10T09:28:49.942Z,102440
2022-09-10T09:29:46.655Z,102440
2022-09-10T09:30:49.506Z,102439
2022-09-10T09:31:43.453Z,102435
2022-09-10T09:32:42.764Z,102435
2022-09-10T09:33:38.378Z,102436
2022-09-10T09:34:44.109Z,102440
2022-09-10T09:35:53.292Z,102439
2022-09-10T09:37:38.917Z,102440
2022-09-10T09:39:46.476Z,102436
2022-09-10T09:40:46.911Z,102434
2022-09-10T09:41:52.205Z,102436
2022-09-10T09:42:50.939Z,102438
2022-09-10T09:44:46.319Z,102432
2022-09-10T09:45:39.717Z,102435
2022-09-10T09:46:37.277Z,102433
2022-09-10T09:47:37.433Z,102432
2022-09-10T09:48:42.233Z,102429
2022-09-10T09:49:37.326Z,102429
2022-09-10T09:50:42.462Z,102428
2022-09-10T09:51:37.317Z,102430
2022-09-10T09:52:38.734Z,102427
2022-09-10T09:53:37.234Z,102427
2022-09-10T09:55:13.284Z,102429
2022-09-10T09:55:42.358Z,102428
2022-09-10T09:56:42.373Z,102424
2022-09-10T09:57:37.248Z,102424
2022-09-10T09:59:37.342Z,102427
2022-09-10T10:02:38.867Z,102422
2022-09-10T10:03:48.843Z,102424
2022-09-10T10:04:42.024Z,102422
2022-09-10T10:05:37.495Z,102417
2022-09-10T10:06:47.263Z,102417
2022-09-10T10:08:41.596Z,102415
2022-09-10T10:15:42.324Z,102411
2022-09-10T10:18:37.315Z,102409
2022-09-10T10:19:40.182Z,102408
2022-09-10T10:21:38.274Z,102408
2022-09-10T10:23:38.967Z,102404
2022-09-10T10:24:37.234Z,102401
2022-09-10T10:25:41.418Z,102402
2022-09-10T10:26:38.378Z,102398
2022-09-10T10:27:42.933Z,102398
2022-09-10T10:28:37.287Z,102396
2022-09-10T10:29:38.070Z,102397
2022-09-10T10:30:37.234Z,102398
2022-09-10T10:31:41.972Z,102396
2022-09-10T10:32:49.913Z,102398
2022-09-10T10:33:39.558Z,102394
2022-09-10T10:34:54.085Z,102396
2022-09-10T10:35:53.444Z,102398
2022-09-10T10:37:48.868Z,102394
2022-09-10T10:38:40.692Z,102394
2022-09-10T10:39:55.570Z,102391
2022-09-10T10:40:43.613Z,102390
2022-09-10T10:41:47.076Z,102388
2022-09-10T10:42:44.601Z,102386
2022-09-10T10:44:55.394Z,102392
2022-09-10T10:45:42.703Z,102391
2022-09-10T10:46:50.140Z,102390
2022-09-10T10:48:51.661Z,102389
2022-09-10T10:49:53.493Z,102388
2022-09-10T10:50:43.910Z,102387
2022-09-10T10:52:51.489Z,102387
2022-09-10T10:54:54.207Z,102382
2022-09-10T10:55:42.399Z,102381
2022-09-10T10:57:44.020Z,102377
2022-09-10T10:59:55.059Z,102378
2022-09-10T11:01:42.889Z,102375
2022-09-10T11:06:44.135Z,102372
2022-09-10T11:08:42.010Z,102369
2022-09-10T11:09:41.572Z,102366
2022-09-10T11:10:42.497Z,102365
2022-09-10T11:11:49.773Z,102362
2022-09-10T11:12:47.600Z,102361
2022-09-10T11:14:45.130Z,102354
2022-09-10T11:15:46.927Z,102353
2022-09-10T11:16:44.411Z,102350
2022-09-10T11:17:46.647Z,102347
2022-09-10T11:18:44.285Z,102347
2022-09-10T11:19:56.396Z,102350
2022-09-10T11:20:43.224Z,102346
2022-09-10T11:21:44.864Z,102345
2022-09-10T11:22:45.485Z,102345
2022-09-10T11:24:42.505Z,102341
2022-09-10T11:25:45.098Z,102338
2022-09-10T11:26:51.094Z,102339
2022-09-10T11:27:43.473Z,102337
2022-09-10T11:28:44.126Z,102335
2022-09-10T11:29:41.783Z,102331
2022-09-10T11:30:41.835Z,102333
2022-09-10T11:31:43.860Z,102334
2022-09-10T11:32:43.127Z,102334
2022-09-10T11:33:50.425Z,102336
2022-09-10T11:34:43.657Z,102334
2022-09-10T11:36:47.747Z,102328
2022-09-10T11:37:51.242Z,102327
2022-09-10T11:38:53.198Z,102328
2022-09-10T11:39:42.439Z,102325
2022-09-10T11:40:54.277Z,102322
2022-09-10T11:41:42.761Z,102327
2022-09-10T11:43:49.485Z,102319
2022-09-10T11:45:47.504Z,102322
2022-09-10T11:47:43.408Z,102321
2022-09-10T11:48:46.008Z,102324
2022-09-10T11:49:48.422Z,102318
2022-09-10T11:50:45.899Z,102323
2022-09-10T11:51:39.918Z,102321
2022-09-10T11:52:37.930Z,102319
2022-09-10T11:53:37.653Z,102319
2022-09-10T11:54:38.647Z,102317
2022-09-10T11:55:49.732Z,102317
2022-09-10T11:56:53.294Z,102317
2022-09-10T11:57:50.234Z,102315
2022-09-10T11:58:49.173Z,102314
2022-09-10T11:59:45.975Z,102311
2022-09-10T12:00:49.397Z,102311
2022-09-10T12:01:46.044Z,102310
2022-09-10T12:02:55.447Z,102309
2022-09-10T12:03:49.839Z,102306
2022-09-10T12:04:55.304Z,102304
2022-09-10T12:06:45.689Z,102302
2022-09-10T12:07:45.302Z,102301
2022-09-10T12:08:45.500Z,102304
2022-09-10T12:09:53.395Z,102303
2022-09-10T12:10:48.448Z,102301
2022-09-10T12:11:51.771Z,102300
2022-09-10T12:12:44.302Z,102300
2022-09-10T12:13:40.499Z,102297
2022-09-10T12:14:41.350Z,102295
2022-09-10T12:15:38.842Z,102297
2022-09-10T12:16:43.642Z,102299
2022-09-10T12:18:43.237Z,102293
2022-09-10T12:19:46.347Z,102294
2022-09-10T12:20:48.885Z,102297
2022-09-10T12:21:44.230Z,102296
2022-09-10T12:23:40.937Z,102296
2022-09-10T12:24:39.830Z,102295
2022-09-10T12:25:37.213Z,102297
2022-09-10T12:26:45.211Z,102293
2022-09-10T12:27:56.511Z,102290
2022-09-10T12:29:41.393Z,102288
2022-09-10T12:31:56.233Z,102288
2022-09-10T12:35:48.236Z,102284
2022-09-10T12:36:46.941Z,102282
2022-09-10T12:37:37.191Z,102278
2022-09-10T12:38:55.344Z,102280
2022-09-10T12:39:37.201Z,102280
2022-09-10T12:40:49.745Z,102277
2022-09-10T12:41:46.210Z,102277
2022-09-10T12:42:37.244Z,102277
2022-09-10T12:44:46.992Z,102275
2022-09-10T12:46:44.799Z,102274
2022-09-10T12:49:53.715Z,102274
2022-09-10T12:50:46.186Z,102273
2022-09-10T12:51:52.323Z,102269
2022-09-10T12:52:43.899Z,102266
2022-09-10T12:53:45.906Z,102269
2022-09-10T12:54:55.922Z,102264
2022-09-10T12:55:51.670Z,102264
2022-09-10T12:56:55.887Z,102263
2022-09-10T12:57:50.930Z,102263
2022-09-10T12:59:45.847Z,102260
2022-09-10T13:00:42.587Z,102263
2022-09-10T13:01:44.308Z,102259
2022-09-10T13:02:46.742Z,102259
2022-09-10T13:03:37.888Z,102259
2022-09-10T13:04:38.608Z,102255
2022-09-10T13:05:45.705Z,102256
2022-09-10T13:06:41.859Z,102255
2022-09-10T13:07:41.904Z,102255
2022-09-10T13:08:42.639Z,102252
2022-09-10T13:09:40.450Z,102250
2022-09-10T13:10:38.689Z,102247
2022-09-10T13:11:37.445Z,102249
2022-09-10T13:12:42.129Z,102244
2022-09-10T13:13:39.064Z,102243
2022-09-10T13:14:40.410Z,102244
2022-09-10T13:15:39.980Z,102241
2022-09-10T13:16:40.784Z,102243
2022-09-10T13:18:38.276Z,102241
2022-09-10T13:20:37.544Z,102241
2022-09-10T13:21:45.905Z,102240
2022-09-10T13:22:55.982Z,102237
2022-09-10T13:23:48.057Z,102235
2022-09-10T13:24:39.665Z,102233
2022-09-10T13:25:42.926Z,102230
2022-09-10T13:26:50.694Z,102231
2022-09-10T13:27:40.069Z,102230
2022-09-10T13:28:46.579Z,102225
2022-09-10T13:29:43.568Z,102225
2022-09-10T13:30:37.172Z,102225
2022-09-10T13:31:43.374Z,102223
2022-09-10T13:32:52.384Z,102221
2022-09-10T13:33:53.092Z,102219
2022-09-10T13:35:47.680Z,102222
2022-09-10T13:39:56.197Z,102216
2022-09-10T13:40:56.316Z,102219
2022-09-10T13:42:53.652Z,102219
2022-09-10T13:43:51.469Z,102219
2022-09-10T13:44:55.549Z,102215
2022-09-10T13:45:41.859Z,102215
2022-09-10T13:46:43.754Z,102213
2022-09-10T13:47:39.882Z,102212
2022-09-10T13:48:51.702Z,102208
2022-09-10T13:49:49.192Z,102211
2022-09-10T13:50:49.358Z,102209
2022-09-10T13:52:38.357Z,102217
2022-09-10T13:53:43.127Z,102215
2022-09-10T13:55:38.106Z,102213
2022-09-10T13:57:42.175Z,102202
2022-09-10T13:58:40.173Z,102200
2022-09-10T13:59:38.422Z,102202
2022-09-10T14:00:49.642Z,102201
2022-09-10T14:01:54.339Z,102199
2022-09-10T14:02:45.444Z,102199
2022-09-10T14:03:42.013Z,102197
2022-09-10T14:07:37.508Z,102192
2022-09-10T14:08:42.508Z,102191